Time;durP1;ratioP1;P1;durP2;ratioP2;P2;SDS_P1;SDS_P2;PMS_P1;PMS_P2;Temp;Humidity;BMP_temperature;BMP_pressure;BME280_temperature;BME280_humidity;BME280_pressure;Samples;Min_cycle;Max_cycle;Signal;HPM_P1;HPM_P2
2022/11/16 00:02:09;;;;;;;6.93;6.22;;;13.10;96.70;;;;;;5114056;27;20096;-73
2022/11/16 00:04:38;;;;;;;7.22;5.90;;;13.10;96.70;;;;;;5095378;27;20142;-73
2022/11/16 00:07:07;;;;;;;7.22;5.43;;;13.10;96.70;;;;;;5096329;27;20138;-73
2022/11/16 00:09:35;;;;;;;6.45;5.85;;;13.10;96.70;;;;;;5087987;27;20608;-73
2022/11/16 00:12:05;;;;;;;7.18;6.45;;;13.10;96.70;;;;;;5090641;28;20075;-73
2022/11/16 00:14:34;;;;;;;7.25;6.30;;;13.10;96.70;;;;;;5109379;27;20070;-74
2022/11/16 00:17:03;;;;;;;8.63;6.00;;;13.10;96.70;;;;;;5094603;28;20032;-73
2022/11/16 00:19:33;;;;;;;6.53;5.82;;;13.10;96.70;;;;;;5118034;27;20047;-73
2022/11/16 00:22:01;;;;;;;8.45;5.65;;;13.10;96.70;;;;;;5077900;27;20378;-73
2022/11/16 00:24:29;;;;;;;6.53;5.82;;;13.10;96.70;;;;;;5108232;27;20678;-73
2022/11/16 00:26:57;;;;;;;6.95;5.85;;;13.10;96.70;;;;;;5093034;28;20055;-73
2022/11/16 00:29:26;;;;;;;8.07;7.13;;;13.10;96.70;;;;;;5089470;28;20047;-73
2022/11/16 00:31:54;;;;;;;8.45;6.25;;;13.10;96.70;;;;;;5111753;27;20444;-73
2022/11/16 00:34:23;;;;;;;7.90;6.35;;;13.10;96.70;;;;;;5112794;27;20127;-73
2022/11/16 00:36:52;;;;;;;10.57;6.80;;;13.10;96.70;;;;;;5075952;28;20565;-73
2022/11/16 00:39:21;;;;;;;6.70;6.03;;;13.10;96.70;;;;;;5102979;27;20048;-74
2022/11/16 00:41:49;;;;;;;9.45;6.40;;;13.10;96.70;;;;;;5092049;27;20039;-73
2022/11/16 00:44:17;;;;;;;8.18;6.80;;;13.10;96.70;;;;;;5117891;27;20429;-73
2022/11/16 00:46:46;;;;;;;8.32;6.05;;;13.10;96.70;;;;;;5072810;27;20185;-73
2022/11/16 00:49:14;;;;;;;8.98;6.70;;;13.10;96.70;;;;;;5106851;27;20168;-73
2022/11/16 00:51:42;;;;;;;7.28;5.97;;;13.10;96.70;;;;;;5091064;28;20058;-73
2022/11/16 00:54:12;;;;;;;6.88;6.18;;;13.10;96.70;;;;;;5078431;28;20051;-73
2022/11/16 00:56:40;;;;;;;7.22;6.22;;;13.10;96.70;;;;;;5109887;27;20091;-73
2022/11/16 00:59:08;;;;;;;7.95;6.10;;;13.20;96.70;;;;;;5093440;28;20043;-72
2022/11/16 01:01:37;;;;;;;7.68;6.35;;;13.20;96.70;;;;;;5087248;27;20053;-73
2022/11/16 01:04:06;;;;;;;6.55;5.90;;;13.10;96.70;;;;;;5102071;27;20074;-73
2022/11/16 01:06:35;;;;;;;6.97;5.70;;;13.10;96.70;;;;;;5083643;28;20155;-73
2022/11/16 01:09:03;;;;;;;7.40;6.20;;;13.10;96.70;;;;;;5085220;28;20051;-73
2022/11/16 01:14:19;;;;;;;6.78;5.97;;;13.10;96.70;;;;;;5110719;27;20046;-72
2022/11/16 01:16:49;;;;;;;6.45;5.80;;;13.10;96.70;;;;;;5074000;28;20735;-72
2022/11/16 01:19:17;;;;;;;7.65;5.60;;;13.10;96.70;;;;;;5094558;28;20108;-73
2022/11/16 01:21:45;;;;;;;6.32;5.55;;;13.10;96.70;;;;;;5100976;27;20039;-73
2022/11/16 01:24:13;;;;;;;7.40;6.13;;;13.20;96.70;;;;;;5084685;28;20070;-73
2022/11/16 01:26:43;;;;;;;8.13;5.47;;;13.20;96.70;;;;;;5105855;27;20043;-73
2022/11/16 01:29:11;;;;;;;5.82;5.25;;;13.20;96.70;;;;;;5072893;28;20516;-72
2022/11/16 01:31:43;;;;;;;6.32;5.28;;;13.20;96.70;;;;;;5083911;28;20047;-73
2022/11/16 01:34:11;;;;;;;7.38;6.10;;;13.20;96.70;;;;;;5108496;27;20039;-73
2022/11/16 01:36:39;;;;;;;7.07;5.80;;;13.20;96.70;;;;;;5091952;27;20067;-73
2022/11/16 01:39:08;;;;;;;6.68;5.90;;;13.20;96.70;;;;;;5093393;27;20142;-73
2022/11/16 01:41:49;;;;;;;7.57;6.38;;;13.20;96.70;;;;;;5102929;27;20104;-73
2022/11/16 01:44:57;;;;;;;7.45;5.78;;;13.20;96.70;;;;;;5095896;27;20107;-73
2022/11/16 01:47:25;;;;;;;6.88;6.18;;;13.20;96.70;;;;;;5097167;27;20047;-72
2022/11/16 01:50:00;;;;;;;6.65;5.57;;;13.20;96.70;;;;;;5117004;27;20051;-73
2022/11/16 01:52:34;;;;;;;7.65;6.20;;;13.20;96.70;;;;;;5118295;27;20040;-73
2022/11/16 01:55:03;;;;;;;6.95;5.70;;;13.20;96.70;;;;;;5091760;27;20074;-73
2022/11/16 01:57:46;;;;;;;6.53;5.78;;;13.20;96.70;;;;;;5086905;28;20044;-72
2022/11/16 02:00:16;;;;;;;6.15;5.25;;;13.20;96.70;;;;;;5083164;27;20047;-72
2022/11/16 02:02:55;;;;;;;6.68;5.28;;;13.20;96.70;;;;;;5093469;27;20500;-74
2022/11/16 02:06:01;;;;;;;6.55;5.90;;;13.20;96.70;;;;;;5096983;28;20516;-73
2022/11/16 02:11:46;;;;;;;7.82;5.63;;;13.20;96.70;;;;;;5106053;28;20134;-73
2022/11/16 02:14:26;;;;;;;7.55;5.82;;;13.20;96.70;;;;;;5087685;28;20084;-73
2022/11/16 02:17:02;;;;;;;7.43;6.07;;;13.20;96.70;;;;;;5097124;28;20496;-73
2022/11/16 02:19:54;;;;;;;6.70;6.03;;;13.20;96.70;;;;;;5069227;28;20386;-73
2022/11/16 02:22:33;;;;;;;8.25;5.85;;;13.20;96.70;;;;;;5080057;27;20516;-73
2022/11/16 02:25:05;;;;;;;6.60;5.90;;;13.20;96.70;;;;;;5124132;27;20422;-73
2022/11/16 02:28:03;;;;;;;6.35;5.65;;;13.20;96.70;;;;;;5091541;28;20059;-73
2022/11/16 02:30:34;;;;;;;8.68;6.00;;;13.20;96.70;;;;;;5095752;27;20095;-73
2022/11/16 02:33:08;;;;;;;6.97;6.13;;;13.20;96.70;;;;;;5106522;27;20035;-73
2022/11/16 02:35:42;;;;;;;6.63;5.82;;;13.20;96.70;;;;;;5097284;28;20574;-73
2022/11/16 02:38:16;;;;;;;5.90;5.30;;;13.20;96.70;;;;;;5106681;27;21161;-73
2022/11/16 02:40:47;;;;;;;6.47;5.78;;;13.20;96.70;;;;;;5074816;28;20040;-73
2022/11/16 02:43:25;;;;;;;6.53;5.55;;;13.20;96.70;;;;;;5095161;28;20074;-73
2022/11/16 02:46:00;;;;;;;8.30;5.78;;;13.20;96.70;;;;;;5069304;27;20044;-73
2022/11/16 02:48:32;;;;;;;7.40;5.57;;;13.20;96.70;;;;;;5092507;27;20100;-73
2022/11/16 02:51:02;;;;;;;9.20;5.72;;;13.20;96.70;;;;;;5097546;27;20142;-73
2022/11/16 02:53:35;;;;;;;6.57;5.57;;;13.30;96.70;;;;;;5089535;28;20054;-73
2022/11/16 02:56:04;;;;;;;5.38;4.88;;;13.30;96.70;;;;;;5083120;28;20051;-73
2022/11/16 02:58:32;;;;;;;6.90;6.03;;;13.20;96.70;;;;;;5112689;27;20043;-73
2022/11/16 03:01:07;;;;;;;6.82;5.45;;;13.30;96.70;;;;;;5093343;28;20047;-73
2022/11/16 03:03:44;;;;;;;6.55;5.57;;;13.30;96.70;;;;;;5097435;28;20226;-73
2022/11/16 03:06:17;;;;;;;6.55;5.78;;;13.30;96.70;;;;;;5094511;27;20188;-73
2022/11/16 03:08:55;;;;;;;8.18;5.57;;;13.30;96.70;;;;;;5098559;27;20078;-73
2022/11/16 03:14:15;;;;;;;6.88;6.13;;;13.30;96.70;;;;;;5085966;28;20097;-73
2022/11/16 03:16:48;;;;;;;6.55;5.90;;;13.30;96.70;;;;;;5092236;27;20101;-73
2022/11/16 03:19:25;;;;;;;6.03;5.38;;;13.30;96.70;;;;;;5118576;27;20031;-73
2022/11/16 03:21:58;;;;;;;6.22;5.63;;;13.30;96.70;;;;;;5104401;27;20139;-73
2022/11/16 03:24:27;;;;;;;6.03;5.43;;;13.30;96.70;;;;;;5095988;28;20052;-72
2022/11/16 03:27:01;;;;;;;6.85;6.10;;;13.20;96.70;;;;;;5098913;27;20401;-73
2022/11/16 03:29:32;;;;;;;6.70;5.70;;;13.30;96.70;;;;;;5077068;28;20052;-73
2022/11/16 03:32:13;;;;;;;6.55;5.80;;;13.20;96.70;;;;;;5080429;28;20419;-73
2022/11/16 03:34:48;;;;;;;6.38;5.72;;;13.30;96.70;;;;;;5109985;27;20044;-73
2022/11/16 03:37:17;;;;;;;6.13;5.53;;;13.30;96.70;;;;;;5090626;27;20048;-73
2022/11/16 03:39:45;;;;;;;6.18;5.57;;;13.30;96.70;;;;;;5113030;27;20453;-73
2022/11/16 03:42:15;;;;;;;6.53;5.63;;;13.30;96.70;;;;;;5102603;27;20066;-73
2022/11/16 03:44:45;;;;;;;7.22;5.82;;;13.30;96.70;;;;;;5107412;27;20052;-73
2022/11/16 03:47:17;;;;;;;7.97;6.07;;;13.30;96.70;;;;;;5122687;27;20047;-73
2022/11/16 03:49:47;;;;;;;5.80;5.20;;;13.30;96.70;;;;;;5081066;27;20537;-73
2022/11/16 03:52:18;;;;;;;5.30;4.80;;;13.30;96.70;;;;;;5105409;27;20393;-73
2022/11/16 03:54:48;;;;;;;6.25;5.63;;;13.30;96.70;;;;;;5086256;28;20047;-72
2022/11/16 03:57:18;;;;;;;6.88;5.75;;;13.30;96.70;;;;;;5098347;28;20825;-73
2022/11/16 03:59:52;;;;;;;6.35;5.57;;;13.30;96.70;;;;;;5095971;27;20094;-73
2022/11/16 04:02:21;;;;;;;5.68;5.03;;;13.30;96.70;;;;;;5081033;27;20159;-74
2022/11/16 04:24:37;;;;;;;5.95;5.35;;;13.40;96.70;;;;;;5091184;28;20527;-73
2022/11/16 04:29:59;;;;;;;6.15;5.55;;;13.40;96.70;;;;;;5089897;27;20082;-73
2022/11/16 04:38:04;;;;;;;7.15;6.38;;;13.40;96.70;;;;;;5103135;27;20116;-73
2022/11/16 04:40:34;;;;;;;6.47;5.78;;;13.40;96.70;;;;;;5082329;27;20353;-74
2022/11/16 04:43:04;;;;;;;7.68;5.75;;;13.40;96.70;;;;;;5100921;27;20442;-73
2022/11/16 04:48:26;;;;;;;7.13;5.40;;;13.40;96.70;;;;;;5119732;27;20062;-72
2022/11/16 04:50:56;;;;;;;9.90;5.88;;;13.40;96.70;;;;;;5088885;27;21140;-72
2022/11/16 04:53:26;;;;;;;7.47;6.03;;;13.40;96.70;;;;;;5089594;27;20116;-73
2022/11/16 04:56:03;;;;;;;7.15;5.68;;;13.40;96.70;;;;;;5095768;27;20116;-73
2022/11/16 04:58:32;;;;;;;6.97;6.18;;;13.40;96.70;;;;;;5084257;28;20139;-73
2022/11/16 05:01:02;;;;;;;7.35;5.55;;;13.40;96.70;;;;;;5085263;27;20058;-73
2022/11/16 05:03:30;;;;;;;9.00;6.25;;;13.40;96.70;;;;;;5091901;27;20075;-73
2022/11/16 05:05:59;;;;;;;6.00;5.38;;;13.40;96.70;;;;;;5095818;27;20587;-73
2022/11/16 05:08:28;;;;;;;9.90;6.40;;;13.40;96.70;;;;;;5092416;27;20042;-73
2022/11/16 05:10:57;;;;;;;8.55;5.68;;;13.40;96.70;;;;;;5088743;28;20143;-73
2022/11/16 05:13:26;;;;;;;8.55;6.05;;;13.40;96.70;;;;;;5091942;27;20047;-73
2022/11/16 05:15:54;;;;;;;7.60;5.90;;;13.40;96.70;;;;;;5085609;27;20047;-72
2022/11/16 05:18:22;;;;;;;6.50;5.80;;;13.40;96.70;;;;;;5097696;27;20035;-72
2022/11/16 05:20:59;;;;;;;6.93;5.60;;;13.40;96.70;;;;;;5090540;27;20407;-73
2022/11/16 05:26:23;;;;;;;6.60;5.68;;;13.40;96.70;;;;;;5095752;27;20154;-73
2022/11/16 05:28:53;;;;;;;6.63;5.50;;;13.40;96.70;;;;;;5098405;28;20126;-73
2022/11/16 05:31:21;;;;;;;6.63;5.70;;;13.40;96.70;;;;;;5085377;28;20039;-73
2022/11/16 05:33:49;;;;;;;7.03;5.65;;;13.40;96.70;;;;;;5068026;28;20396;-73
2022/11/16 05:36:18;;;;;;;5.95;5.40;;;13.40;96.70;;;;;;5104409;27;20123;-73
2022/11/16 05:38:48;;;;;;;6.22;5.47;;;13.40;96.70;;;;;;5117504;27;20051;-73
2022/11/16 05:41:24;;;;;;;6.65;5.88;;;13.50;96.70;;;;;;5085495;28;20539;-73
2022/11/16 05:43:54;;;;;;;6.45;5.10;;;13.40;96.70;;;;;;5069613;28;20140;-73
2022/11/16 05:46:23;;;;;;;6.00;5.40;;;13.40;96.70;;;;;;5099633;27;20130;-74
2022/11/16 05:48:54;;;;;;;5.38;4.88;;;13.40;96.70;;;;;;5072083;28;20043;-73
2022/11/16 05:51:23;;;;;;;6.80;5.65;;;13.50;96.70;;;;;;5089545;28;20058;-73
2022/11/16 05:53:54;;;;;;;6.55;5.72;;;13.50;96.70;;;;;;5083335;28;20046;-73
2022/11/16 05:56:23;;;;;;;6.38;5.10;;;13.40;96.70;;;;;;5090220;27;20111;-73
2022/11/16 05:58:53;;;;;;;8.68;5.78;;;13.40;96.70;;;;;;5106221;27;20793;-73
2022/11/16 06:01:21;;;;;;;5.60;4.60;;;13.40;96.70;;;;;;5113759;27;20505;-73
2022/11/16 06:03:50;;;;;;;5.30;4.80;;;13.40;96.70;;;;;;5088412;28;20031;-74
2022/11/16 06:06:19;;;;;;;6.22;5.35;;;13.40;96.70;;;;;;5105470;28;20443;-74
2022/11/16 06:08:49;;;;;;;5.95;5.18;;;13.40;96.70;;;;;;5065397;28;20574;-73
2022/11/16 06:11:24;;;;;;;5.20;4.70;;;13.40;96.70;;;;;;5081846;28;20130;-72
2022/11/16 06:13:52;;;;;;;7.47;5.55;;;13.40;96.70;;;;;;5067272;28;20047;-74
2022/11/16 06:16:20;;;;;;;5.70;5.10;;;13.40;96.70;;;;;;5071427;28;20043;-74
2022/11/16 06:18:48;;;;;;;4.55;4.15;;;13.40;96.70;;;;;;5084932;28;20043;-74
2022/11/16 06:21:18;;;;;;;5.15;4.65;;;13.50;96.70;;;;;;5081588;28;20047;-73
2022/11/16 06:23:47;;;;;;;6.32;4.63;;;13.50;96.70;;;;;;5091836;28;20112;-73
2022/11/16 06:26:16;;;;;;;7.22;4.72;;;13.50;96.70;;;;;;5109901;28;20050;-74
2022/11/16 06:28:46;;;;;;;5.28;4.63;;;13.50;96.70;;;;;;5117940;27;20499;-74
2022/11/16 06:31:15;;;;;;;5.57;4.80;;;13.50;96.70;;;;;;5088892;28;20051;-73
2022/11/16 06:33:44;;;;;;;5.55;4.95;;;13.50;96.70;;;;;;5102429;28;20451;-73
2022/11/16 06:36:18;;;;;;;8.20;5.70;;;13.50;96.70;;;;;;5110535;27;20120;-73
2022/11/16 06:38:48;;;;;;;6.03;5.20;;;13.50;96.70;;;;;;5083269;28;20089;-74
2022/11/16 06:41:17;;;;;;;7.20;5.30;;;13.50;96.70;;;;;;5088899;28;20044;-73
2022/11/16 06:43:50;;;;;;;8.90;7.85;;;13.50;96.70;;;;;;5093223;28;20213;-74
2022/11/16 06:46:23;;;;;;;11.00;9.05;;;13.50;96.70;;;;;;5074388;28;20043;-73
2022/11/16 06:48:52;;;;;;;9.45;8.45;;;13.50;96.70;;;;;;5096138;28;20403;-73
2022/11/16 06:51:20;;;;;;;10.57;8.88;;;13.50;96.70;;;;;;5091213;28;20124;-73
2022/11/16 06:53:48;;;;;;;10.75;8.27;;;13.50;96.70;;;;;;5107218;28;20039;-72
2022/11/16 06:56:18;;;;;;;8.77;7.35;;;13.50;96.70;;;;;;5093635;28;20070;-73
2022/11/16 06:58:55;;;;;;;6.95;6.00;;;13.50;96.70;;;;;;5086232;28;20047;-73
2022/11/16 07:01:25;;;;;;;7.57;5.47;;;13.50;96.70;;;;;;5086141;28;20043;-72
2022/11/16 07:03:59;;;;;;;9.27;5.97;;;13.50;96.70;;;;;;5085150;28;20039;-73
2022/11/16 07:06:29;;;;;;;6.88;6.05;;;13.50;96.70;;;;;;5086528;28;20051;-74
2022/11/16 07:08:58;;;;;;;10.45;6.78;;;13.50;96.70;;;;;;5099993;28;20051;-74
2022/11/16 07:11:30;;;;;;;7.43;6.72;;;13.50;96.70;;;;;;5096175;27;20137;-73
2022/11/16 07:14:01;;;;;;;7.70;6.82;;;13.50;96.70;;;;;;5089239;27;20055;-74
2022/11/16 07:16:30;;;;;;;7.47;6.25;;;13.50;96.70;;;;;;5089411;28;20043;-74
2022/11/16 07:19:01;;;;;;;6.90;6.05;;;13.50;96.70;;;;;;5086624;28;20058;-73
2022/11/16 07:21:31;;;;;;;8.43;6.57;;;13.60;96.70;;;;;;5090818;28;20108;-73
2022/11/16 07:24:02;;;;;;;8.52;7.05;;;13.60;96.70;;;;;;5093303;27;20032;-72
2022/11/16 07:26:32;;;;;;;7.22;6.53;;;13.60;96.70;;;;;;5096906;27;20190;-73
2022/11/16 07:29:14;;;;;;;9.60;6.88;;;13.60;96.70;;;;;;5091498;28;20505;-73
2022/11/16 07:31:58;;;;;;;8.45;7.03;;;13.70;96.70;;;;;;5092021;27;20520;-72
2022/11/16 07:34:48;;;;;;;8.98;7.68;;;13.70;96.70;;;;;;5110934;27;20048;-73
2022/11/16 07:37:17;;;;;;;8.85;6.93;;;13.80;96.70;;;;;;5093802;27;20511;-73
2022/11/16 07:39:45;;;;;;;8.35;6.95;;;13.80;96.70;;;;;;5104378;27;20139;-74
2022/11/16 07:42:13;;;;;;;7.90;6.45;;;13.90;96.70;;;;;;5095812;27;20138;-73
2022/11/16 07:45:12;;;;;;;7.32;6.53;;;13.90;96.70;;;;;;5072711;27;20056;-74
2022/11/16 07:47:51;;;;;;;8.18;6.30;;;13.90;96.70;;;;;;5070358;28;20146;-73
2022/11/16 07:50:58;;;;;;;9.70;6.68;;;13.90;96.70;;;;;;5118116;27;20111;-73
2022/11/16 07:53:26;;;;;;;9.32;7.55;;;13.90;96.70;;;;;;5088191;28;20050;-73
2022/11/16 07:55:54;;;;;;;11.55;8.10;;;13.90;96.70;;;;;;5089869;27;20135;-73
2022/11/16 07:58:28;;;;;;;11.07;7.30;;;13.90;96.70;;;;;;5101335;27;20043;-73
2022/11/16 08:01:04;;;;;;;10.55;7.85;;;13.90;96.70;;;;;;5097083;27;20514;-73
2022/11/16 08:03:33;;;;;;;12.23;8.75;;;13.90;96.70;;;;;;5096271;28;20420;-73
2022/11/16 08:06:06;;;;;;;11.00;8.27;;;13.90;96.70;;;;;;5092969;27;20654;-73
2022/11/16 08:08:35;;;;;;;14.05;8.15;;;13.90;96.70;;;;;;5090146;27;20138;-73
2022/11/16 08:11:04;;;;;;;11.18;7.25;;;13.90;96.70;;;;;;5096835;27;20063;-73
2022/11/16 08:13:35;;;;;;;9.43;7.15;;;13.90;96.70;;;;;;5091581;28;20100;-73
2022/11/16 08:16:08;;;;;;;7.22;6.40;;;14.00;96.70;;;;;;5086647;28;20050;-73
2022/11/16 08:18:38;;;;;;;8.05;6.75;;;14.00;96.70;;;;;;5091555;27;20078;-73
2022/11/16 08:21:08;;;;;;;10.80;7.03;;;14.10;96.70;;;;;;5099211;27;20077;-73
2022/11/16 08:23:39;;;;;;;9.10;7.32;;;14.20;96.70;;;;;;5091957;27;20040;-73
2022/11/16 08:26:09;;;;;;;10.45;7.80;;;14.20;96.70;;;;;;5106891;27;20039;-73
2022/11/16 08:28:38;;;;;;;12.60;8.40;;;14.20;96.70;;;;;;5078507;27;20055;-73
2022/11/16 08:31:11;;;;;;;15.13;9.93;;;14.20;96.70;;;;;;5104367;27;20523;-74
2022/11/16 08:33:40;;;;;;;13.40;9.43;;;14.20;96.70;;;;;;5073029;27;20136;-73
2022/11/16 08:36:15;;;;;;;17.33;10.05;;;14.20;96.70;;;;;;5111359;27;20048;-73
2022/11/16 08:38:47;;;;;;;19.10;10.02;;;14.20;96.70;;;;;;5089104;28;20059;-72
2022/11/16 08:41:16;;;;;;;11.18;8.40;;;14.20;96.70;;;;;;5105500;27;20051;-73
2022/11/16 08:43:49;;;;;;;10.05;7.93;;;14.10;96.70;;;;;;5101169;27;20051;-73
2022/11/16 08:46:21;;;;;;;14.50;9.32;;;14.10;96.70;;;;;;5095480;28;20564;-73
2022/11/16 08:48:57;;;;;;;11.88;8.35;;;14.20;96.70;;;;;;5114751;27;20070;-73
2022/11/16 08:51:25;;;;;;;12.30;8.25;;;14.20;96.70;;;;;;5092139;27;20055;-73
2022/11/16 08:54:02;;;;;;;11.27;8.68;;;14.20;96.70;;;;;;5086976;28;20059;-74
2022/11/16 08:56:31;;;;;;;10.70;7.82;;;14.20;96.70;;;;;;5092446;28;20178;-74
2022/11/16 08:59:00;;;;;;;9.50;7.20;;;14.20;96.70;;;;;;5092540;28;20047;-73
2022/11/16 09:01:31;;;;;;;15.02;7.35;;;14.30;96.70;;;;;;5076903;28;20135;-73
2022/11/16 09:03:59;;;;;;;10.30;7.97;;;14.30;96.70;;;;;;5093097;28;20048;-73
2022/11/16 09:06:28;;;;;;;10.15;7.07;;;14.30;96.70;;;;;;5091677;28;20117;-73
2022/11/16 09:08:56;;;;;;;8.73;7.05;;;14.30;96.70;;;;;;5096820;28;20052;-73
2022/11/16 09:11:25;;;;;;;9.23;6.40;;;14.40;96.70;;;;;;5087573;28;20047;-73
2022/11/16 09:13:54;;;;;;;8.75;6.57;;;14.30;96.70;;;;;;5106653;27;20059;-73
2022/11/16 09:16:23;;;;;;;7.50;5.63;;;14.40;96.70;;;;;;5081725;28;20082;-73
2022/11/16 09:18:53;;;;;;;7.82;6.18;;;14.50;96.70;;;;;;5079322;28;20044;-73
2022/11/16 09:21:23;;;;;;;8.45;6.00;;;14.60;96.70;;;;;;5084643;28;20135;-73
2022/11/16 09:23:52;;;;;;;8.70;5.95;;;14.60;96.70;;;;;;5089146;28;20035;-73
2022/11/16 09:26:21;;;;;;;8.00;6.47;;;14.70;96.70;;;;;;5084219;28;20836;-73
2022/11/16 09:28:57;;;;;;;10.65;7.18;;;14.70;96.70;;;;;;5081240;28;20148;-73
2022/11/16 09:31:26;;;;;;;7.43;6.20;;;14.80;96.70;;;;;;5082526;28;20135;-73
2022/11/16 09:33:57;;;;;;;7.78;6.50;;;14.90;96.70;;;;;;5081229;28;20044;-73
2022/11/16 09:36:27;;;;;;;8.63;5.95;;;14.90;96.70;;;;;;5084999;28;20044;-73
2022/11/16 09:38:56;;;;;;;7.95;6.20;;;14.90;96.70;;;;;;5084976;28;20687;-73
2022/11/16 09:41:57;;;;;;;6.80;6.13;;;14.90;96.70;;;;;;5081080;28;20123;-74
2022/11/16 09:44:43;;;;;;;6.47;5.47;;;14.90;96.70;;;;;;5091041;28;20051;-72
2022/11/16 09:47:16;;;;;;;8.85;6.20;;;14.90;96.70;;;;;;5090975;28;20044;-73
2022/11/16 09:49:52;;;;;;;6.47;5.82;;;15.00;96.70;;;;;;5107911;27;20432;-73
2022/11/16 09:52:32;;;;;;;5.80;4.97;;;15.00;96.70;;;;;;5092971;28;20071;-73
2022/11/16 09:55:05;;;;;;;7.68;6.05;;;15.10;96.70;;;;;;5083677;28;20973;-73
2022/11/16 09:57:36;;;;;;;7.03;6.13;;;15.10;96.70;;;;;;5115740;27;20046;-73
2022/11/16 10:00:12;;;;;;;8.15;5.47;;;15.20;96.70;;;;;;5108143;27;20552;-73
2022/11/16 10:02:44;;;;;;;7.20;5.70;;;15.20;96.70;;;;;;5083498;28;20160;-73
2022/11/16 10:05:19;;;;;;;7.65;5.20;;;15.30;96.70;;;;;;5092836;27;20055;-74
2022/11/16 10:07:49;;;;;;;8.57;6.13;;;15.30;96.70;;;;;;5107497;28;20405;-73
2022/11/16 10:10:24;;;;;;;6.75;5.32;;;15.30;96.70;;;;;;5117390;27;20053;-73
2022/11/16 10:13:02;;;;;;;6.88;5.95;;;15.20;96.70;;;;;;5094695;27;20448;-73
2022/11/16 10:15:43;;;;;;;6.05;5.40;;;15.20;96.70;;;;;;5096134;27;20047;-74
2022/11/16 10:18:38;;;;;;;6.75;5.60;;;15.10;96.70;;;;;;5086913;28;20166;-74
2022/11/16 10:21:21;;;;;;;10.65;6.38;;;15.10;96.70;;;;;;5107618;28;20135;-73
2022/11/16 10:24:03;;;;;;;6.65;5.60;;;15.00;96.70;;;;;;5090393;28;20484;-73
2022/11/16 10:26:40;;;;;;;6.45;5.25;;;15.00;96.70;;;;;;5118779;28;20123;-73
2022/11/16 10:29:21;;;;;;;9.15;5.65;;;15.00;96.70;;;;;;5091960;28;20047;-74
2022/11/16 10:32:04;;;;;;;8.05;5.55;;;15.00;96.70;;;;;;5078046;28;20036;-72
2022/11/16 10:34:50;;;;;;;6.35;5.70;;;15.00;96.70;;;;;;5095640;28;20051;-73
2022/11/16 10:37:21;;;;;;;9.85;6.30;;;14.90;96.70;;;;;;5108331;28;20126;-73
2022/11/16 10:39:52;;;;;;;6.95;6.20;;;14.80;96.70;;;;;;5110225;27;20103;-74
2022/11/16 10:42:25;;;;;;;7.00;6.22;;;14.80;96.70;;;;;;5092206;28;20120;-73
2022/11/16 10:45:01;;;;;;;8.30;6.72;;;14.90;96.70;;;;;;5091601;27;20052;-73
2022/11/16 10:47:40;;;;;;;9.30;7.30;;;15.00;96.70;;;;;;5079229;27;20077;-73
2022/11/16 10:50:33;;;;;;;16.95;10.25;;;15.10;96.70;;;;;;5113637;27;20039;-73
2022/11/16 10:53:03;;;;;;;9.75;8.35;;;15.20;96.70;;;;;;5102608;27;20040;-73
2022/11/16 10:55:31;;;;;;;11.60;8.73;;;15.30;96.70;;;;;;5070793;28;20051;-73
2022/11/16 10:58:01;;;;;;;9.55;8.20;;;15.30;96.70;;;;;;5109195;27;20062;-75
2022/11/16 11:00:44;;;;;;;9.77;7.93;;;15.40;96.70;;;;;;5091392;27;20066;-73
2022/11/16 11:03:13;;;;;;;10.07;7.90;;;15.40;96.70;;;;;;5110481;27;20046;-73
2022/11/16 11:05:51;;;;;;;8.98;8.00;;;15.40;96.70;;;;;;5113899;27;20226;-73
2022/11/16 11:08:29;;;;;;;9.13;7.65;;;15.40;96.70;;;;;;5093008;27;20051;-73
2022/11/16 11:11:01;;;;;;;12.50;8.48;;;15.50;96.70;;;;;;5088275;27;20048;-73
2022/11/16 11:13:33;;;;;;;11.00;8.77;;;15.50;96.70;;;;;;5119309;27;20047;-73
2022/11/16 11:16:16;;;;;;;10.73;9.25;;;15.50;96.70;;;;;;5092822;28;20103;-73
2022/11/16 11:18:45;;;;;;;10.68;9.25;;;15.50;96.70;;;;;;5097332;27;20055;-73
2022/11/16 11:21:18;;;;;;;12.45;8.95;;;15.50;96.70;;;;;;5103956;27;20619;-74
2022/11/16 11:23:50;;;;;;;9.65;8.40;;;15.50;96.70;;;;;;5113320;27;20063;-73
2022/11/16 11:26:34;;;;;;;9.85;8.15;;;15.40;96.70;;;;;;5112378;27;20039;-73
2022/11/16 11:29:19;;;;;;;11.13;8.68;;;15.40;96.70;;;;;;5120885;27;20100;-73
2022/11/16 11:31:49;;;;;;;15.25;11.88;;;15.40;96.70;;;;;;5114106;27;20043;-73
2022/11/16 11:34:20;;;;;;;20.90;17.13;;;15.40;96.70;;;;;;5114266;27;20123;-73
2022/11/16 11:36:52;;;;;;;21.38;14.73;;;15.50;96.70;;;;;;5103571;27;20463;-73
2022/11/16 11:39:36;;;;;;;14.05;12.20;;;15.60;96.70;;;;;;5077214;27;20050;-73
2022/11/16 11:42:20;;;;;;;12.40;10.85;;;15.80;96.70;;;;;;5104007;27;20576;-73
2022/11/16 11:44:56;;;;;;;12.75;10.18;;;15.80;96.70;;;;;;5065088;28;20037;-73
2022/11/16 11:47:43;;;;;;;11.25;9.25;;;15.80;96.70;;;;;;5064847;28;20044;-73
2022/11/16 11:50:39;;;;;;;11.38;8.23;;;15.70;96.70;;;;;;5083052;28;20048;-72
2022/11/16 11:53:17;;;;;;;10.63;8.43;;;15.90;96.70;;;;;;5062644;28;20048;-73
2022/11/16 11:55:50;;;;;;;9.32;8.20;;;16.10;96.70;;;;;;5064029;28;20040;-73
2022/11/16 11:58:20;;;;;;;11.43;9.07;;;16.10;96.70;;;;;;5069295;28;20063;-73
2022/11/16 12:00:57;;;;;;;12.15;9.52;;;16.10;96.70;;;;;;5067314;28;20169;-73
2022/11/16 12:03:52;;;;;;;10.90;9.02;;;16.10;96.70;;;;;;5076760;28;20054;-73
2022/11/16 12:06:28;;;;;;;10.55;8.40;;;16.00;96.70;;;;;;5091147;28;20062;-73
2022/11/16 12:09:27;;;;;;;10.07;7.50;;;15.90;96.70;;;;;;5072028;28;20054;-73
2022/11/16 12:12:11;;;;;;;11.07;8.85;;;16.00;96.70;;;;;;5079645;28;20444;-73
2022/11/16 12:14:58;;;;;;;11.48;8.40;;;16.00;96.70;;;;;;5063634;28;20051;-72
2022/11/16 12:17:35;;;;;;;13.25;8.80;;;16.10;96.70;;;;;;5074769;28;20028;-72
2022/11/16 12:20:18;;;;;;;12.32;9.40;;;16.10;96.70;;;;;;5068617;28;20860;-72
2022/11/16 12:23:11;;;;;;;11.38;8.82;;;16.20;96.70;;;;;;5053710;28;20040;-72
2022/11/16 12:25:49;;;;;;;12.35;8.82;;;16.30;96.70;;;;;;5065507;28;20498;-71
2022/11/16 12:28:34;;;;;;;11.63;7.97;;;16.50;96.70;;;;;;5061489;28;20093;-73
2022/11/16 12:31:19;;;;;;;11.25;9.30;;;16.50;96.70;;;;;;5079675;28;20128;-72
2022/11/16 12:33:56;;;;;;;12.88;9.77;;;16.50;96.70;;;;;;5072113;28;20039;-71
2022/11/16 12:36:34;;;;;;;9.40;8.32;;;16.60;96.70;;;;;;5064671;28;20420;-71
2022/11/16 12:39:19;;;;;;;12.15;8.27;;;16.70;96.70;;;;;;5066323;28;20052;-72
2022/11/16 12:42:11;;;;;;;14.00;10.50;;;16.70;96.70;;;;;;5077782;28;20037;-71
2022/11/16 12:45:15;;;;;;;17.48;12.05;;;16.60;96.70;;;;;;5060268;28;20133;-71
2022/11/16 12:47:58;;;;;;;15.80;11.10;;;16.60;96.70;;;;;;5056744;28;20394;-71
2022/11/16 12:50:50;;;;;;;13.43;8.75;;;16.70;96.70;;;;;;5061053;28;20502;-72
2022/11/16 12:53:40;;;;;;;13.18;8.52;;;16.70;96.70;;;;;;5056340;28;20078;-72
2022/11/16 12:56:18;;;;;;;13.38;8.13;;;16.80;96.70;;;;;;5061253;28;20094;-72
2022/11/16 12:58:58;;;;;;;9.38;6.88;;;16.80;96.70;;;;;;5061048;28;20543;-72
2022/11/16 13:01:34;;;;;;;8.13;6.97;;;16.80;96.70;;;;;;5060699;28;20051;-72
2022/11/16 13:04:09;;;;;;;11.45;8.10;;;16.80;96.70;;;;;;5061883;28;20052;-72
2022/11/16 13:06:43;;;;;;;9.40;7.40;;;16.70;96.70;;;;;;5062467;28;20045;-72
2022/11/16 13:09:17;;;;;;;8.68;6.97;;;16.70;96.70;;;;;;5061440;28;20593;-71
2022/11/16 13:11:48;;;;;;;8.80;6.50;;;16.70;96.70;;;;;;5061499;28;20066;-71
2022/11/16 13:14:19;;;;;;;6.68;5.63;;;16.70;96.70;;;;;;5062385;28;20102;-71
2022/11/16 13:16:50;;;;;;;8.77;5.82;;;16.80;96.70;;;;;;5061694;28;20047;-72
2022/11/16 13:19:19;;;;;;;10.35;7.90;;;16.90;96.70;;;;;;5063002;28;20055;-73
2022/11/16 13:21:52;;;;;;;7.45;5.85;;;16.90;96.70;;;;;;5061227;28;20040;-72
2022/11/16 13:24:40;;;;;;;12.73;9.38;;;16.90;96.70;;;;;;5060288;28;20540;-72
2022/11/16 13:27:27;;;;;;;9.85;6.75;;;16.90;96.70;;;;;;5062235;28;20049;-72
2022/11/16 13:30:02;;;;;;;6.13;5.10;;;17.00;96.70;;;;;;5061002;28;20051;-72
2022/11/16 13:32:48;;;;;;;7.55;4.43;;;17.00;96.70;;;;;;5060444;28;20048;-72
2022/11/16 13:35:17;;;;;;;4.57;3.97;;;17.00;96.70;;;;;;5061374;28;20506;-72
2022/11/16 13:37:47;;;;;;;6.63;3.88;;;16.90;96.70;;;;;;5062357;28;20462;-72
2022/11/16 13:40:24;;;;;;;6.65;4.28;;;16.90;96.70;;;;;;5061043;28;20057;-72
2022/11/16 13:43:16;;;;;;;7.55;3.35;;;16.90;96.70;;;;;;5075157;27;20055;-72
2022/11/16 13:45:55;;;;;;;5.53;4.47;;;16.90;96.70;;;;;;5087297;28;20043;-72
2022/11/16 13:48:31;;;;;;;5.38;4.10;;;16.90;96.70;;;;;;5117782;27;20098;-72
2022/11/16 13:51:02;;;;;;;5.68;3.80;;;16.90;96.70;;;;;;5112347;27;20071;-72
2022/11/16 13:53:35;;;;;;;5.43;3.60;;;17.00;96.70;;;;;;5115151;27;20512;-72
2022/11/16 13:56:23;;;;;;;4.55;4.03;;;17.00;96.70;;;;;;5102289;28;20542;-72
2022/11/16 13:58:57;;;;;;;5.90;3.88;;;17.10;96.70;;;;;;5097506;27;20116;-72
2022/11/16 14:01:56;;;;;;;5.38;3.72;;;17.00;96.70;;;;;;5103562;27;20548;-72